Time;durP1;ratioP1;P1;durP2;ratioP2;P2;SDS_P1;SDS_P2;PMS_P1;PMS_P2;Temp;Humidity;BMP_temperature;BMP_pressure;BME280_temperature;BME280_humidity;BME280_pressure;Samples;Min_cycle;Max_cycle;Signal;HPM_P1;HPM_P2
2023/03/11 00:00:12;;;;;;;13.60;7.03;;;1.40;99.90;;;;;;7321730;32;20199;-54
2023/03/11 00:04:14;;;;;;;17.58;6.20;;;1.40;99.90;;;;;;7329999;32;20161;-54
2023/03/11 00:08:19;;;;;;;12.77;5.20;;;1.40;99.90;;;;;;7334621;32;20623;-54
2023/03/11 00:12:21;;;;;;;15.07;5.53;;;1.50;99.90;;;;;;7340058;32;20149;-54
2023/03/11 00:16:23;;;;;;;12.10;4.78;;;1.50;99.90;;;;;;7340890;32;20190;-56
2023/03/11 00:20:31;;;;;;;11.23;4.93;;;1.50;99.90;;;;;;7331634;32;20238;-55
2023/03/11 00:24:33;;;;;;;12.52;4.22;;;1.50;99.90;;;;;;7335543;32;20214;-56
2023/03/11 00:28:35;;;;;;;8.68;2.83;;;1.50;99.90;;;;;;7333619;32;20129;-56
2023/03/11 00:32:37;;;;;;;9.13;3.35;;;1.40;99.90;;;;;;7334961;32;20104;-56
2023/03/11 00:36:38;;;;;;;8.13;2.33;;;1.30;99.90;;;;;;7337822;32;20470;-56
2023/03/11 00:40:41;;;;;;;6.68;2.22;;;1.40;99.90;;;;;;7345831;32;20174;-55
2023/03/11 00:44:43;;;;;;;10.85;2.50;;;1.40;99.90;;;;;;7340815;32;20202;-56
2023/03/11 00:48:44;;;;;;;15.13;2.90;;;1.40;99.90;;;;;;7338486;32;20156;-56
2023/03/11 00:52:47;;;;;;;7.03;3.37;;;1.50;99.90;;;;;;7335227;32;20489;-55
2023/03/11 00:56:49;;;;;;;10.00;3.33;;;1.50;99.90;;;;;;7342901;32;20131;-55
2023/03/11 01:00:50;;;;;;;10.65;3.17;;;1.50;99.90;;;;;;7339719;32;20203;-55
2023/03/11 01:04:54;;;;;;;11.75;3.37;;;1.60;99.90;;;;;;7334151;32;20154;-55
2023/03/11 01:08:56;;;;;;;16.08;3.55;;;1.60;99.90;;;;;;7345503;32;20114;-55
2023/03/11 01:12:58;;;;;;;10.27;3.35;;;1.60;99.90;;;;;;7335977;32;20214;-55
2023/03/11 01:16:59;;;;;;;6.53;2.20;;;1.60;99.90;;;;;;7338042;32;20111;-55
2023/03/11 01:21:01;;;;;;;8.13;2.62;;;1.50;99.90;;;;;;7334290;32;20519;-55
2023/03/11 01:25:03;;;;;;;7.78;1.87;;;1.50;99.90;;;;;;7342968;32;20129;-55
2023/03/11 01:29:05;;;;;;;6.57;2.28;;;1.50;99.90;;;;;;7334300;32;20259;-55
2023/03/11 01:33:12;;;;;;;8.00;2.17;;;1.50;99.90;;;;;;7345812;32;20108;-55
2023/03/11 01:37:13;;;;;;;8.77;2.40;;;1.50;99.90;;;;;;7343945;32;20418;-55
2023/03/11 01:41:15;;;;;;;6.62;1.90;;;1.50;99.90;;;;;;7335124;32;20491;-55
2023/03/11 01:46:01;;;;;;;7.75;2.30;;;1.50;99.90;;;;;;7337018;32;20512;-55
2023/03/11 01:50:08;;;;;;;10.00;2.00;;;1.50;99.90;;;;;;7335953;32;20510;-55
2023/03/11 01:54:38;;;;;;;8.75;1.85;;;1.50;99.90;;;;;;7337853;32;20115;-55
2023/03/11 01:58:45;;;;;;;6.20;1.30;;;1.60;99.90;;;;;;7333552;32;20272;-55
2023/03/11 02:02:49;;;;;;;;;;;1.60;99.90;;;;;;7343117;32;20183;-54
2023/03/11 02:06:51;;;;;;;4.90;1.25;;;1.60;99.90;;;;;;7331533;32;20456;-54
2023/03/11 02:10:55;;;;;;;10.02;1.30;;;1.50;99.90;;;;;;7338975;32;20099;-54
2023/03/11 02:14:57;;;;;;;7.95;1.50;;;1.50;99.90;;;;;;7333195;32;20407;-54
2023/03/11 02:19:10;;;;;;;4.03;1.10;;;1.40;99.90;;;;;;7334079;32;20107;-54
2023/03/11 02:23:17;;;;;;;7.12;1.40;;;1.40;99.90;;;;;;7333680;32;20198;-54
2023/03/11 02:27:21;;;;;;;10.30;1.70;;;1.30;99.90;;;;;;7338356;32;20187;-54
2023/03/11 02:31:24;;;;;;;5.57;1.30;;;1.20;99.90;;;;;;7335239;32;20115;-54
2023/03/11 02:35:26;;;;;;;6.87;1.42;;;1.00;99.90;;;;;;7333021;32;20525;-54
2023/03/11 02:39:41;;;;;;;5.28;1.30;;;0.90;99.90;;;;;;7342249;32;20102;-54
2023/03/11 02:43:45;;;;;;;10.43;1.87;;;0.90;99.90;;;;;;7332469;32;20516;-54
2023/03/11 02:47:48;;;;;;;11.98;1.67;;;0.80;99.90;;;;;;7341154;32;20133;-54
2023/03/11 02:51:51;;;;;;;6.20;1.40;;;0.70;99.90;;;;;;7331354;32;20229;-54
2023/03/11 02:55:52;;;;;;;9.90;1.60;;;0.60;99.90;;;;;;7330483;32;20111;-54
2023/03/11 02:59:54;;;;;;;8.85;1.65;;;0.60;99.90;;;;;;7336483;32;20255;-54
2023/03/11 03:03:56;;;;;;;10.25;1.75;;;0.50;99.90;;;;;;7335514;32;20107;-54
2023/03/11 03:07:58;;;;;;;8.90;1.75;;;0.60;99.90;;;;;;7327853;32;20115;-54
2023/03/11 03:12:00;;;;;;;10.07;1.80;;;0.50;99.90;;;;;;7333569;32;20189;-54
2023/03/11 03:16:02;;;;;;;6.87;1.45;;;0.40;99.90;;;;;;7334615;32;20496;-54
2023/03/11 03:20:10;;;;;;;4.53;1.50;;;0.40;99.90;;;;;;7340925;32;20258;-54
2023/03/11 03:24:11;;;;;;;7.03;1.40;;;0.30;99.90;;;;;;7332470;32;20171;-55
2023/03/11 03:28:13;;;;;;;3.97;1.10;;;0.20;99.90;;;;;;7331225;32;20635;-54
2023/03/11 03:32:15;;;;;;;7.15;1.10;;;0.10;99.90;;;;;;7331000;32;20283;-54
2023/03/11 03:36:17;;;;;;;9.63;1.48;;;0.00;99.90;;;;;;7326586;32;20119;-54
2023/03/11 03:40:18;;;;;;;8.98;1.83;;;-0.10;99.90;;;;;;7328245;32;20236;-54
2023/03/11 03:44:20;;;;;;;6.07;1.95;;;-0.10;99.90;;;;;;7326612;32;20650;-54
2023/03/11 03:48:22;;;;;;;9.32;1.45;;;-0.20;99.90;;;;;;7343992;32;20647;-54
2023/03/11 03:52:24;;;;;;;5.07;1.40;;;-0.10;99.90;;;;;;7341539;32;20193;-56
2023/03/11 03:56:25;;;;;;;9.70;1.58;;;-0.20;99.90;;;;;;7335667;32;20186;-56
2023/03/11 04:00:27;;;;;;;8.50;1.90;;;-0.20;99.90;;;;;;7343863;32;20210;-56
2023/03/11 04:04:29;;;;;;;10.82;1.50;;;-0.20;99.90;;;;;;7341291;32;20119;-56
2023/03/11 04:08:31;;;;;;;9.60;1.40;;;-0.10;99.90;;;;;;7342345;32;20150;-56
2023/03/11 04:12:32;;;;;;;4.70;1.50;;;-0.10;99.90;;;;;;7335096;32;20206;-56
2023/03/11 04:16:34;;;;;;;8.40;1.10;;;-0.10;99.90;;;;;;7335542;32;20240;-56
2023/03/11 04:20:37;;;;;;;5.43;1.17;;;0.00;99.90;;;;;;7347062;32;20142;-57
2023/03/11 04:24:39;;;;;;;8.15;1.23;;;0.00;99.90;;;;;;7331513;32;20298;-56
2023/03/11 04:28:41;;;;;;;5.68;1.83;;;-0.10;99.90;;;;;;7338508;32;20139;-55
2023/03/11 04:32:42;;;;;;;6.03;1.40;;;-0.20;99.90;;;;;;7339370;32;20154;-55
2023/03/11 04:36:44;;;;;;;8.02;1.60;;;-0.20;99.90;;;;;;7330249;32;20214;-56
2023/03/11 04:40:46;;;;;;;8.57;1.50;;;-0.20;99.90;;;;;;7336300;32;20153;-57
2023/03/11 04:44:48;;;;;;;9.30;1.60;;;-0.20;99.90;;;;;;7338346;32;20786;-55
2023/03/11 04:48:50;;;;;;;8.32;1.40;;;-0.30;99.90;;;;;;7341833;32;20173;-55
2023/03/11 04:52:51;;;;;;;5.45;1.30;;;-0.30;99.90;;;;;;7330451;32;20112;-54
2023/03/11 04:56:53;;;;;;;7.90;1.73;;;-0.20;99.90;;;;;;7338720;32;20129;-55
2023/03/11 05:00:55;;;;;;;9.00;1.50;;;-0.20;99.90;;;;;;7332251;32;20521;-56
2023/03/11 05:04:57;;;;;;;5.87;1.40;;;-0.30;99.90;;;;;;7331733;32;20163;-54
2023/03/11 05:08:58;;;;;;;6.37;1.35;;;-0.30;99.90;;;;;;7337017;32;20251;-54
2023/03/11 05:13:00;;;;;;;8.27;1.33;;;-0.30;99.90;;;;;;7338147;32;20249;-54
2023/03/11 05:17:02;;;;;;;5.72;1.58;;;-0.20;99.90;;;;;;7335263;32;20111;-55
2023/03/11 05:21:04;;;;;;;6.32;1.17;;;-0.20;99.90;;;;;;7343815;32;20253;-54
2023/03/11 05:25:06;;;;;;;8.90;1.45;;;-0.20;99.90;;;;;;7341251;32;20362;-54
2023/03/11 05:29:07;;;;;;;4.20;1.35;;;-0.10;99.90;;;;;;7337896;32;20158;-54
2023/03/11 05:33:09;;;;;;;6.75;1.30;;;0.00;99.90;;;;;;7339412;32;20206;-55
2023/03/11 05:37:12;;;;;;;6.87;1.15;;;0.00;99.90;;;;;;7339312;32;20191;-55
2023/03/11 05:41:14;;;;;;;3.87;0.93;;;0.10;99.90;;;;;;7335810;32;20701;-55
2023/03/11 05:45:15;;;;;;;7.28;1.10;;;0.10;99.90;;;;;;7336406;32;20247;-54
2023/03/11 05:49:20;;;;;;;9.25;1.45;;;0.10;99.90;;;;;;7340036;32;20179;-56
2023/03/11 05:53:21;;;;;;;10.40;1.87;;;0.20;99.90;;;;;;7338981;32;20521;-54
2023/03/11 05:57:23;;;;;;;8.10;1.20;;;0.20;99.90;;;;;;7337712;32;20129;-54
2023/03/11 06:01:25;;;;;;;3.72;1.00;;;0.10;99.90;;;;;;7331907;32;20129;-54
2023/03/11 06:05:27;;;;;;;8.23;1.33;;;0.10;99.90;;;;;;7330846;32;20209;-55
2023/03/11 06:09:28;;;;;;;7.62;1.17;;;0.10;99.90;;;;;;7330305;32;20217;-57
2023/03/11 06:13:30;;;;;;;4.32;1.50;;;0.00;99.90;;;;;;7331279;32;20153;-55
2023/03/11 06:17:32;;;;;;;4.10;1.15;;;0.10;99.90;;;;;;7333016;32;20533;-55
2023/03/11 06:21:34;;;;;;;5.00;1.40;;;0.10;99.90;;;;;;7336639;32;20238;-56
2023/03/11 06:25:35;;;;;;;3.92;1.73;;;0.10;99.90;;;;;;7337423;32;20256;-54
2023/03/11 06:29:37;;;;;;;5.80;1.50;;;0.20;99.90;;;;;;7335550;32;20137;-56
2023/03/11 06:33:39;;;;;;;5.75;1.80;;;0.20;99.90;;;;;;7332232;32;20139;-55
2023/03/11 06:37:41;;;;;;;5.78;1.70;;;0.10;99.90;;;;;;7330724;32;20127;-54
2023/03/11 06:41:42;;;;;;;7.05;1.60;;;0.20;99.90;;;;;;7334994;32;20102;-54
2023/03/11 06:45:44;;;;;;;7.20;1.50;;;0.10;99.90;;;;;;7334530;32;20849;-53
2023/03/11 06:49:46;;;;;;;4.28;1.70;;;0.20;99.90;;;;;;7337281;32;20120;-56
2023/03/11 06:53:50;;;;;;;7.10;1.60;;;0.30;99.90;;;;;;7334154;32;20170;-56
2023/03/11 06:57:52;;;;;;;4.78;1.65;;;0.30;99.90;;;;;;7345066;32;20493;-56
2023/03/11 07:01:54;;;;;;;10.90;1.75;;;0.10;99.90;;;;;;7336226;32;20182;-56
2023/03/11 07:05:57;;;;;;;5.00;1.52;;;0.10;99.90;;;;;;7330293;32;20146;-56
2023/03/11 07:09:59;;;;;;;7.50;1.48;;;0.20;99.90;;;;;;7339748;32;20148;-56
2023/03/11 07:14:01;;;;;;;7.25;2.08;;;0.00;99.90;;;;;;7333111;32;20161;-56
2023/03/11 07:18:03;;;;;;;7.82;2.10;;;0.00;99.90;;;;;;7336034;32;20168;-56
2023/03/11 07:22:04;;;;;;;5.65;1.80;;;0.10;99.90;;;;;;7334720;32;20844;-56
2023/03/11 07:26:11;;;;;;;7.53;1.50;;;0.00;99.90;;;;;;7330974;32;20182;-57
2023/03/11 07:30:13;;;;;;;9.02;1.70;;;0.10;99.90;;;;;;7336733;32;20107;-56
2023/03/11 07:34:15;;;;;;;6.30;1.45;;;0.20;99.90;;;;;;7340754;32;20107;-57
2023/03/11 07:38:18;;;;;;;9.20;1.73;;;0.20;99.90;;;;;;7335847;32;20114;-59
2023/03/11 07:42:20;;;;;;;4.30;1.40;;;0.30;99.90;;;;;;7335815;32;20164;-58
2023/03/11 07:46:24;;;;;;;15.35;2.47;;;0.30;99.90;;;;;;7332977;32;20100;-57
2023/03/11 07:50:25;;;;;;;5.43;2.08;;;0.50;99.90;;;;;;7339782;32;20595;-57
2023/03/11 07:54:27;;;;;;;6.22;1.48;;;0.60;99.90;;;;;;7339901;32;20131;-57
2023/03/11 07:58:29;;;;;;;7.57;1.52;;;0.60;99.90;;;;;;7328548;32;20221;-57
2023/03/11 08:02:31;;;;;;;11.60;1.87;;;0.80;99.90;;;;;;7328822;32;21781;-58
2023/03/11 08:06:34;;;;;;;8.02;1.77;;;0.80;99.90;;;;;;7332649;32;20702;-58
2023/03/11 08:10:37;;;;;;;9.68;2.08;;;0.80;99.90;;;;;;7335215;32;20174;-58
2023/03/11 08:14:38;;;;;;;11.43;2.17;;;0.90;99.90;;;;;;7334533;32;20123;-57
2023/03/11 08:18:41;;;;;;;7.78;1.95;;;0.90;99.90;;;;;;7337563;32;20176;-58
2023/03/11 08:22:43;;;;;;;7.47;1.87;;;1.00;99.90;;;;;;7331777;32;20396;-58
2023/03/11 08:26:58;;;;;;;8.57;1.70;;;1.00;99.90;;;;;;7330811;32;20115;-58
2023/03/11 08:31:01;;;;;;;5.87;1.60;;;1.20;99.90;;;;;;7336298;32;20254;-58
2023/03/11 08:35:03;;;;;;;5.00;1.50;;;1.20;99.90;;;;;;7337935;32;20218;-55
2023/03/11 08:39:05;;;;;;;4.37;2.20;;;1.30;99.90;;;;;;7338687;32;20224;-58
2023/03/11 08:43:07;;;;;;;5.90;1.80;;;1.50;99.90;;;;;;7334822;32;20661;-58
2023/03/11 08:47:09;;;;;;;5.45;1.80;;;1.60;99.90;;;;;;7328704;32;20271;-58
2023/03/11 08:51:12;;;;;;;9.93;1.73;;;1.70;99.90;;;;;;7337890;32;20177;-58
2023/03/11 08:55:17;;;;;;;6.70;1.30;;;2.40;99.90;;;;;;7335248;32;20111;-55
2023/03/11 08:59:19;;;;;;;8.25;1.40;;;2.90;99.90;;;;;;7339925;32;20552;-55
2023/03/11 09:03:21;;;;;;;5.00;0.80;;;3.90;99.90;;;;;;7326318;32;20596;-55
2023/03/11 09:07:22;;;;;;;6.57;1.25;;;3.90;99.90;;;;;;7339878;32;20115;-57
2023/03/11 09:11:24;;;;;;;3.40;0.70;;;4.10;99.90;;;;;;7331999;32;20173;-56
2023/03/11 09:15:26;;;;;;;7.15;1.33;;;4.80;99.90;;;;;;7331482;32;20190;-57
2023/03/11 09:19:28;;;;;;;4.78;1.37;;;5.30;99.90;;;;;;7331529;32;20107;-57
2023/03/11 09:23:29;;;;;;;7.00;1.42;;;6.20;99.90;;;;;;7335514;32;20309;-56
2023/03/11 09:27:31;;;;;;;2.37;0.75;;;6.10;99.90;;;;;;7327650;32;20478;-57
2023/03/11 09:31:33;;;;;;;4.75;0.60;;;6.50;99.90;;;;;;7333000;32;20125;-56
2023/03/11 09:35:36;;;;;;;4.03;0.98;;;6.30;99.90;;;;;;7339660;32;20210;-56
2023/03/11 09:39:38;;;;;;;5.20;0.70;;;6.60;99.90;;;;;;7335071;32;20686;-55
2023/03/11 09:44:08;;;;;;;6.03;1.10;;;6.60;99.90;;;;;;7332786;32;20126;-56
2023/03/11 09:48:58;;;;;;;2.92;0.77;;;5.80;99.90;;;;;;7334189;32;21235;-57
2023/03/11 09:53:13;;;;;;;4.03;0.75;;;6.50;99.90;;;;;;7305820;32;20108;-56
2023/03/11 09:57:27;;;;;;;5.22;0.90;;;6.90;99.90;;;;;;7336379;32;20257;-56
2023/03/11 10:01:41;;;;;;;3.80;1.40;;;7.30;99.90;;;;;;7338814;32;20219;-56
2023/03/11 10:05:44;;;;;;;3.35;1.15;;;9.50;99.90;;;;;;7336698;32;20111;-57
2023/03/11 10:09:48;;;;;;;6.43;1.73;;;10.10;96.70;;;;;;7327541;32;20149;-56
2023/03/11 10:13:56;;;;;;;3.90;1.62;;;10.30;96.40;;;;;;7340245;32;20103;-57
2023/03/11 10:17:58;;;;;;;6.07;1.70;;;9.00;98.00;;;;;;7337524;32;20239;-55
2023/03/11 10:22:35;;;;;;;6.12;1.48;;;8.10;99.90;;;;;;7334503;32;20103;-56
2023/03/11 10:26:48;;;;;;;6.37;1.35;;;7.50;99.90;;;;;;7339779;32;20108;-56
2023/03/11 10:30:56;;;;;;;5.85;1.17;;;7.70;99.90;;;;;;7332271;32;20111;-56
2023/03/11 10:35:06;;;;;;;8.50;1.33;;;7.50;99.90;;;;;;7332163;32;20190;-56
2023/03/11 10:39:10;;;;;;;9.20;1.83;;;7.30;99.90;;;;;;7329723;32;20115;-57
2023/03/11 10:43:30;;;;;;;6.80;1.23;;;7.50;99.90;;;;;;7334703;32;20170;-56
2023/03/11 10:47:32;;;;;;;5.75;1.50;;;7.00;99.90;;;;;;7329634;32;20134;-55
2023/03/11 10:51:34;;;;;;;6.55;1.42;;;7.20;99.90;;;;;;7334503;32;20111;-55
2023/03/11 10:55:46;;;;;;;6.32;1.40;;;7.00;99.90;;;;;;7334624;32;20103;-56
2023/03/11 10:59:51;;;;;;;4.57;1.40;;;6.90;99.20;;;;;;7334887;32;20168;-57
2023/03/11 11:03:54;;;;;;;4.78;1.42;;;7.00;99.90;;;;;;7335892;32;20321;-56
2023/03/11 11:08:11;;;;;;;4.12;1.48;;;6.90;98.80;;;;;;7334246;32;20520;-57
2023/03/11 11:12:16;;;;;;;5.33;1.27;;;6.80;97.10;;;;;;7337602;32;20335;-57
2023/03/11 11:16:19;;;;;;;6.55;1.60;;;6.80;98.90;;;;;;7335911;32;20218;-58
2023/03/11 11:20:23;;;;;;;6.20;1.65;;;6.70;95.80;;;;;;7338071;32;20107;-58
2023/03/11 11:24:28;;;;;;;3.50;1.25;;;6.50;98.30;;;;;;7337070;32;20272;-57
2023/03/11 11:28:32;;;;;;;5.60;1.73;;;6.30;99.90;;;;;;7337109;32;20139;-57
2023/03/11 11:32:44;;;;;;;4.20;1.40;;;6.50;99.90;;;;;;7338121;32;20129;-57
2023/03/11 11:36:46;;;;;;;3.47;1.20;;;7.00;99.90;;;;;;7337352;32;20146;-58
2023/03/11 11:40:49;;;;;;;6.28;1.50;;;6.80;99.90;;;;;;7333827;32;20108;-58
2023/03/11 11:44:59;;;;;;;5.97;1.20;;;6.90;99.90;;;;;;7334636;32;20103;-56
2023/03/11 11:49:19;;;;;;;4.50;1.10;;;6.80;99.90;;;;;;7334952;32;20107;-57
2023/03/11 11:53:43;;;;;;;7.45;1.12;;;6.30;99.90;;;;;;7335613;32;20230;-57
2023/03/11 11:57:45;;;;;;;6.20;1.00;;;6.70;99.90;;;;;;7336167;32;20131;-57
2023/03/11 12:01:56;;;;;;;4.32;1.17;;;6.60;99.90;;;;;;7337140;32;20873;-57
2023/03/11 12:06:00;;;;;;;5.37;1.25;;;7.50;96.90;;;;;;7340322;32;20123;-58
2023/03/11 12:10:21;;;;;;;3.72;0.95;;;8.30;94.00;;;;;;7337376;32;20120;-58
2023/03/11 12:14:37;;;;;;;7.18;1.48;;;9.60;94.20;;;;;;7337530;32;20513;-57
2023/03/11 12:19:09;;;;;;;2.67;1.08;;;10.50;88.50;;;;;;7341852;32;20133;-58
2023/03/11 12:23:18;;;;;;;5.53;1.30;;;11.60;84.10;;;;;;7337441;32;20136;-57
2023/03/11 12:27:26;;;;;;;10.70;1.35;;;11.50;76.20;;;;;;7337482;32;20375;-57
2023/03/11 12:31:37;;;;;;;5.57;1.30;;;10.90;77.00;;;;;;7335984;32;20107;-57
2023/03/11 12:35:46;;;;;;;5.20;1.20;;;9.90;78.10;;;;;;7343062;32;20199;-57
2023/03/11 12:39:48;;;;;;;5.22;1.30;;;8.80;80.70;;;;;;7338690;32;20521;-57
2023/03/11 12:43:49;;;;;;;5.68;1.23;;;8.00;88.50;;;;;;7337643;32;20161;-57
2023/03/11 12:48:24;;;;;;;6.68;1.10;;;8.00;88.70;;;;;;7341030;32;20111;-57
2023/03/11 12:52:27;;;;;;;2.72;1.00;;;9.40;81.20;;;;;;7334848;32;20375;-57
2023/03/11 12:56:42;;;;;;;3.10;1.10;;;11.00;83.70;;;;;;7336856;32;20137;-58
2023/03/11 13:00:58;;;;;;;2.92;1.00;;;12.40;74.10;;;;;;7344965;32;20108;-57
2023/03/11 13:05:25;;;;;;;3.92;0.98;;;13.20;66.40;;;;;;7340847;32;20112;-55
2023/03/11 13:09:26;;;;;;;2.70;0.90;;;13.90;63.50;;;;;;7335819;32;20153;-55
2023/03/11 13:13:41;;;;;;;3.55;0.80;;;13.30;59.60;;;;;;7336558;32;20479;-54
2023/03/11 13:18:04;;;;;;;2.10;0.70;;;13.00;61.90;;;;;;7339711;32;20130;-56
2023/03/11 13:22:41;;;;;;;3.03;0.73;;;12.50;61.40;;;;;;7340097;32;20230;-57
2023/03/11 13:26:59;;;;;;;3.17;0.85;;;12.80;65.60;;;;;;7338433;32;20171;-57
2023/03/11 13:31:08;;;;;;;5.87;1.00;;;13.10;65.50;;;;;;7339195;32;20656;-57
2023/03/11 13:35:45;;;;;;;7.37;1.10;;;13.40;58.60;;;;;;7334617;32;20609;-57
2023/03/11 13:40:18;;;;;;;2.78;0.80;;;11.80;60.30;;;;;;7333961;32;20131;-58
2023/03/11 13:44:23;;;;;;;4.80;0.90;;;11.40;64.60;;;;;;7331253;32;20208;-57
2023/03/11 13:48:31;;;;;;;2.33;0.82;;;12.30;61.00;;;;;;7336715;32;20103;-57
2023/03/11 13:52:35;;;;;;;4.62;1.05;;;13.10;59.30;;;;;;7340812;32;20140;-57
2023/03/11 13:56:45;;;;;;;5.62;1.00;;;13.70;59.00;;;;;;7329984;32;20257;-58
2023/03/11 14:00:50;;;;;;;6.47;2.03;;;14.30;58.80;;;;;;7342321;32;20114;-57
2023/03/11 14:04:56;;;;;;;3.40;0.80;;;14.10;55.30;;;;;;7331508;32;20464;-57
2023/03/11 14:08:58;;;;;;;4.00;1.00;;;14.90;54.00;;;;;;7336312;32;20115;-57
2023/03/11 14:13:05;;;;;;;3.65;0.80;;;14.30;55.00;;;;;;7339482;32;20206;-57
2023/03/11 14:17:14;;;;;;;4.00;0.95;;;14.80;54.10;;;;;;7334477;32;20112;-56
2023/03/11 14:21:21;;;;;;;1.25;0.73;;;15.40;51.10;;;;;;7334482;32;20220;-55
2023/03/11 14:25:24;;;;;;;;;;;15.20;51.10;;;;;;7335264;32;20256;-55
2023/03/11 14:29:33;;;;;;;2.50;0.75;;;15.10;51.80;;;;;;7344726;32;20018;-56
2023/03/11 14:33:34;;;;;;;4.12;0.90;;;15.40;53.90;;;;;;7331818;32;20300;-55
2023/03/11 14:37:37;;;;;;;2.50;0.73;;;15.10;50.70;;;;;;7331835;32;20210;-57
2023/03/11 14:41:39;;;;;;;1.58;0.68;;;14.80;50.50;;;;;;7339350;32;20159;-58
2023/03/11 14:45:42;;;;;;;2.78;0.70;;;13.60;53.00;;;;;;7333440;32;20133;-56
2023/03/11 14:49:46;;;;;;;3.12;1.08;;;11.30;56.70;;;;;;7335554;32;20112;-56
2023/03/11 14:54:16;;;;;;;2.75;1.12;;;10.10;62.30;;;;;;7333406;32;20115;-58
2023/03/11 14:58:28;;;;;;;2.90;0.80;;;8.70;66.10;;;;;;7337269;32;20134;-54
2023/03/11 15:02:50;;;;;;;3.05;1.08;;;7.90;68.70;;;;;;7338376;32;20111;-56
2023/03/11 15:06:52;;;;;;;1.00;0.60;;;7.90;71.60;;;;;;7332439;32;20191;-56
2023/03/11 15:11:18;;;;;;;2.10;0.70;;;7.40;73.40;;;;;;7334166;32;20134;-56
2023/03/11 15:15:26;;;;;;;7.20;0.82;;;7.30;76.70;;;;;;7337810;32;20566;-56
2023/03/11 15:19:28;;;;;;;4.50;1.00;;;7.00;74.90;;;;;;7341437;32;20111;-57
2023/03/11 15:23:31;;;;;;;10.65;1.92;;;6.90;74.40;;;;;;7340195;32;20133;-56
2023/03/11 15:27:36;;;;;;;1.73;0.60;;;6.70;78.30;;;;;;7335148;32;20116;-56
2023/03/11 15:31:39;;;;;;;3.65;0.90;;;6.40;81.60;;;;;;7337257;32;20119;-56
2023/03/11 15:35:46;;;;;;;2.70;0.62;;;6.60;80.40;;;;;;7332714;32;20141;-55
2023/03/11 15:39:51;;;;;;;4.28;0.68;;;6.60;80.70;;;;;;7337283;32;20123;-56
2023/03/11 15:43:53;;;;;;;4.57;0.82;;;6.40;85.30;;;;;;7339257;32;20214;-56
2023/03/11 15:47:55;;;;;;;2.97;0.90;;;6.50;81.80;;;;;;7347446;32;20648;-55
2023/03/11 15:51:58;;;;;;;2.55;0.70;;;6.40;81.30;;;;;;7339942;32;20125;-56
2023/03/11 15:56:09;;;;;;;5.53;0.88;;;6.40;87.20;;;;;;7344676;32;20754;-55
2023/03/11 16:00:22;;;;;;;4.05;0.95;;;6.50;85.80;;;;;;7334454;32;20163;-56
2023/03/11 16:04:23;;;;;;;6.20;1.25;;;6.50;87.40;;;;;;7338217;32;20153;-56
2023/03/11 16:08:25;;;;;;;4.47;0.70;;;6.30;85.60;;;;;;7337896;32;20687;-56
2023/03/11 16:12:27;;;;;;;3.45;0.60;;;6.10;90.10;;;;;;7340465;32;20143;-57
2023/03/11 16:16:29;;;;;;;1.30;0.50;;;6.10;84.10;;;;;;7342166;32;20163;-57
2023/03/11 16:20:37;;;;;;;3.80;0.95;;;6.10;80.20;;;;;;7335817;32;20170;-56
2023/03/11 16:24:39;;;;;;;2.67;0.70;;;6.10;87.50;;;;;;7341501;32;20245;-56
2023/03/11 16:28:41;;;;;;;4.70;0.82;;;6.00;89.00;;;;;;7340325;32;20450;-56
2023/03/11 16:32:43;;;;;;;4.65;0.80;;;6.00;85.30;;;;;;7332238;32;20261;-55
2023/03/11 16:36:44;;;;;;;3.05;0.70;;;5.90;88.00;;;;;;7342794;32;20249;-56
2023/03/11 16:40:57;;;;;;;3.03;0.80;;;5.60;91.90;;;;;;7333932;32;20214;-57
2023/03/11 16:44:59;;;;;;;3.67;0.80;;;5.50;92.00;;;;;;7336523;32;20126;-56
2023/03/11 16:49:04;;;;;;;2.65;0.60;;;5.70;92.00;;;;;;7334887;32;20123;-56
2023/03/11 16:53:06;;;;;;;2.58;0.77;;;5.50;96.40;;;;;;7336468;32;20246;-57
2023/03/11 16:57:07;;;;;;;4.05;0.77;;;5.50;99.90;;;;;;7341957;32;20179;-56
2023/03/11 17:01:13;;;;;;;2.35;0.70;;;5.40;99.90;;;;;;7337717;32;20145;-56
2023/03/11 17:05:15;;;;;;;3.37;0.88;;;5.20;99.90;;;;;;7334288;32;20777;-56
2023/03/11 17:09:17;;;;;;;2.10;0.70;;;5.00;99.90;;;;;;7332375;32;20645;-57
2023/03/11 17:13:18;;;;;;;2.53;0.68;;;4.90;99.90;;;;;;7328768;32;20123;-56
2023/03/11 17:17:22;;;;;;;2.45;0.70;;;4.80;99.90;;;;;;7340113;32;20211;-56
2023/03/11 17:21:24;;;;;;;2.47;0.85;;;4.60;99.90;;;;;;7332647;32;20544;-56
2023/03/11 17:25:25;;;;;;;4.62;0.80;;;4.40;99.90;;;;;;7334056;32;20151;-56
2023/03/11 17:29:27;;;;;;;3.20;1.00;;;4.20;99.90;;;;;;7339069;32;20220;-56
2023/03/11 17:33:29;;;;;;;4.85;0.93;;;4.00;99.90;;;;;;7331818;32;20107;-56
2023/03/11 17:37:31;;;;;;;3.40;1.00;;;3.70;99.90;;;;;;7341871;32;20245;-56
2023/03/11 17:41:33;;;;;;;5.93;1.73;;;3.50;99.90;;;;;;7340147;32;20189;-55
2023/03/11 17:45:37;;;;;;;2.33;1.08;;;3.20;99.90;;;;;;7341608;32;20102;-55
2023/03/11 17:49:39;;;;;;;5.15;2.20;;;3.10;99.90;;;;;;7334580;32;20175;-55
2023/03/11 17:53:43;;;;;;;4.30;1.98;;;2.80;99.90;;;;;;7334258;32;20895;-56
2023/03/11 17:57:46;;;;;;;1.50;0.70;;;2.60;99.90;;;;;;7336305;32;20197;-56
2023/03/11 18:01:48;;;;;;;2.67;0.88;;;2.40;99.90;;;;;;7339182;32;20154;-56
2023/03/11 18:05:58;;;;;;;2.78;0.57;;;2.30;99.90;;;;;;7334208;32;20457;-56
2023/03/11 18:09:59;;;;;;;3.37;0.90;;;2.10;99.90;;;;;;7334294;32;20130;-56
2023/03/11 18:14:01;;;;;;;5.62;0.68;;;2.00;99.90;;;;;;7343866;32;20119;-55
2023/03/11 18:18:03;;;;;;;1.65;0.50;;;1.80;99.90;;;;;;7330428;32;20148;-55
2023/03/11 18:22:05;;;;;;;1.80;0.60;;;1.60;99.90;;;;;;7336052;32;20215;-55
2023/03/11 18:26:09;;;;;;;2.22;0.93;;;1.50;99.90;;;;;;7332575;32;20183;-56
2023/03/11 18:30:11;;;;;;;4.50;0.90;;;1.40;99.90;;;;;;7336616;32;20209;-55
2023/03/11 18:34:13;;;;;;;6.30;1.00;;;1.30;99.90;;;;;;7342221;32;20107;-56
2023/03/11 18:38:15;;;;;;;2.72;1.30;;;1.20;99.90;;;;;;7335187;32;20643;-55
2023/03/11 18:42:17;;;;;;;4.35;1.05;;;1.10;99.90;;;;;;7335811;32;20253;-56
2023/03/11 18:46:19;;;;;;;3.60;1.40;;;1.00;99.90;;;;;;7332458;32;20253;-56
2023/03/11 18:50:21;;;;;;;4.12;1.08;;;0.80;99.90;;;;;;7339354;32;20491;-55
2023/03/11 18:54:22;;;;;;;3.25;1.10;;;0.80;99.90;;;;;;7335710;32;20123;-55
2023/03/11 18:58:24;;;;;;;5.93;1.40;;;0.70;99.90;;;;;;7332572;32;20187;-55
2023/03/11 19:02:26;;;;;;;4.80;2.00;;;0.60;99.90;;;;;;7334998;32;20099;-55
2023/03/11 19:06:28;;;;;;;21.20;8.65;;;0.50;99.90;;;;;;7333874;32;20430;-56
2023/03/11 19:10:30;;;;;;;3.75;1.62;;;0.40;99.90;;;;;;7333341;32;20175;-56
2023/03/11 19:14:32;;;;;;;4.25;1.08;;;0.30;99.90;;;;;;7337533;32;20104;-56
2023/03/11 19:18:34;;;;;;;6.12;1.45;;;0.30;99.90;;;;;;7337875;32;20179;-55
2023/03/11 19:22:36;;;;;;;5.80;2.00;;;0.20;99.90;;;;;;7339825;32;20896;-56
2023/03/11 19:26:39;;;;;;;4.75;1.95;;;0.20;99.90;;;;;;7333170;32;20125;-55
2023/03/11 19:30:55;;;;;;;3.45;1.35;;;0.10;99.90;;;;;;7336995;32;20880;-56
2023/03/11 19:34:57;;;;;;;2.72;0.93;;;0.00;99.90;;;;;;7324961;32;20685;-56
2023/03/11 19:38:59;;;;;;;5.10;1.30;;;0.00;99.90;;;;;;7336118;32;20138;-55
2023/03/11 19:43:01;;;;;;;3.92;1.40;;;-0.10;99.90;;;;;;7333665;32;20130;-56
2023/03/11 19:47:05;;;;;;;7.93;1.35;;;-0.10;99.90;;;;;;7336065;32;20294;-55
2023/03/11 19:51:07;;;;;;;4.60;1.08;;;0.00;99.90;;;;;;7330911;32;20566;-58
2023/03/11 19:55:09;;;;;;;4.85;1.67;;;-0.10;99.90;;;;;;7335934;32;20122;-56
2023/03/11 19:59:11;;;;;;;4.80;1.60;;;-0.10;99.90;;;;;;7334408;32;20157;-56
2023/03/11 20:03:14;;;;;;;4.03;1.67;;;-0.10;99.90;;;;;;7337776;32;20602;-57
2023/03/11 20:07:16;;;;;;;4.50;1.87;;;-0.10;99.90;;;;;;7335090;32;20134;-57
2023/03/11 20:11:17;;;;;;;2.53;1.50;;;0.00;99.90;;;;;;7332470;32;20830;-57
2023/03/11 20:15:19;;;;;;;3.62;1.58;;;0.10;99.90;;;;;;7332045;32;20497;-56
2023/03/11 20:19:21;;;;;;;8.27;2.30;;;0.10;99.90;;;;;;7331401;32;20244;-56
2023/03/11 20:23:23;;;;;;;7.05;2.47;;;0.10;99.90;;;;;;7333552;32;20153;-56
2023/03/11 20:27:24;;;;;;;5.25;1.87;;;0.10;99.90;;;;;;7339082;32;20115;-57
2023/03/11 20:31:27;;;;;;;4.53;2.08;;;0.10;99.90;;;;;;7341129;32;20541;-57
2023/03/11 20:35:28;;;;;;;5.70;1.80;;;0.10;99.90;;;;;;7334533;32;20194;-56
2023/03/11 20:39:30;;;;;;;7.62;2.20;;;0.10;99.90;;;;;;7331901;32;20114;-57
2023/03/11 20:43:33;;;;;;;8.02;3.70;;;0.00;99.90;;;;;;7334154;32;20137;-56
2023/03/11 20:47:35;;;;;;;8.55;4.78;;;0.00;99.90;;;;;;7337229;32;20170;-56
2023/03/11 20:51:36;;;;;;;6.00;3.97;;;0.00;99.90;;;;;;7337956;32;20461;-57
2023/03/11 20:55:42;;;;;;;8.65;4.50;;;-0.10;99.90;;;;;;7344141;32;20265;-57
2023/03/11 20:59:44;;;;;;;8.95;4.10;;;0.00;99.90;;;;;;7334251;32;20098;-57
2023/03/11 21:03:46;;;;;;;7.18;4.40;;;0.00;99.90;;;;;;7326545;32;20230;-55
2023/03/11 21:07:48;;;;;;;5.37;2.92;;;0.00;99.90;;;;;;7337188;32;20183;-56
2023/03/11 21:11:49;;;;;;;8.10;2.83;;;-0.10;99.90;;;;;;7335204;32;20129;-55
2023/03/11 21:15:54;;;;;;;7.30;3.95;;;-0.10;99.90;;;;;;7335707;32;20549;-57
2023/03/11 21:19:56;;;;;;;9.13;3.78;;;-0.10;99.90;;;;;;7336794;32;20131;-55
2023/03/11 21:23:58;;;;;;;17.12;9.68;;;-0.10;99.90;;;;;;7341287;32;20198;-56
2023/03/11 21:27:59;;;;;;;7.75;3.83;;;-0.10;99.90;;;;;;7341481;32;20201;-56